sensor_id;sensor_type;location;lat;lon;timestamp;noise_LAeq;noise_LA_min;noise_LA_max;noise_LA01;noise_LA95
73663;Laerm;61956;52.540;13.382;2023-05-14T01:40:50;63.33;57.93;67.20;;
73663;Laerm;61956;52.540;13.382;2023-05-14T01:43:22;63.69;58.00;67.91;;
73663;Laerm;61956;52.540;13.382;2023-05-14T01:45:51;63.79;58.16;67.09;;
73663;Laerm;61956;52.540;13.382;2023-05-14T01:48:27;63.72;58.19;67.66;;
73663;Laerm;61956;52.540;13.382;2023-05-14T01:50:57;63.55;57.84;67.56;;
73663;Laerm;61956;52.540;13.382;2023-05-14T01:53:27;63.55;57.66;67.60;;
73663;Laerm;61956;52.540;13.382;2023-05-14T01:55:59;63.51;57.69;67.82;;
73663;Laerm;61956;52.540;13.382;2023-05-14T01:58:28;63.51;58.00;68.24;;
73663;Laerm;61956;52.540;13.382;2023-05-14T02:00:57;63.47;57.81;67.79;;
73663;Laerm;61956;52.540;13.382;2023-05-14T02:03:26;63.40;57.71;68.26;;
73663;Laerm;61956;52.540;13.382;2023-05-14T02:05:56;63.36;57.79;67.78;;
73663;Laerm;61956;52.540;13.382;2023-05-14T02:08:27;63.31;57.87;68.50;;
73663;Laerm;61956;52.540;13.382;2023-05-14T02:10:58;63.38;57.93;67.61;;
73663;Laerm;61956;52.540;13.382;2023-05-14T02:13:28;63.44;57.80;80.22;;
73663;Laerm;61956;52.540;13.382;2023-05-14T02:15:57;63.41;57.95;68.29;;
73663;Laerm;61956;52.540;13.382;2023-05-14T02:18:26;63.47;57.67;68.21;;
73663;Laerm;61956;52.540;13.382;2023-05-14T02:20:55;63.49;57.70;67.80;;
73663;Laerm;61956;52.540;13.382;2023-05-14T02:23:24;63.52;57.97;68.49;;
73663;Laerm;61956;52.540;13.382;2023-05-14T02:25:54;63.72;57.94;68.50;;
73663;Laerm;61956;52.540;13.382;2023-05-14T02:28:25;63.74;57.95;67.91;;
73663;Laerm;61956;52.540;13.382;2023-05-14T02:30:58;63.82;58.13;68.11;;
73663;Laerm;61956;52.540;13.382;2023-05-14T02:33:29;63.81;57.55;67.86;;
73663;Laerm;61956;52.540;13.382;2023-05-14T02:35:59;63.88;58.12;68.26;;
73663;Laerm;61956;52.540;13.382;2023-05-14T02:38:28;63.90;57.97;68.06;;
73663;Laerm;61956;52.540;13.382;2023-05-14T02:40:57;63.92;58.19;67.80;;
73663;Laerm;61956;52.540;13.382;2023-05-14T02:43:29;64.05;58.24;68.15;;
73663;Laerm;61956;52.540;13.382;2023-05-14T02:45:58;63.99;57.66;67.99;;
73663;Laerm;61956;52.540;13.382;2023-05-14T02:48:27;63.98;57.87;68.05;;
73663;Laerm;61956;52.540;13.382;2023-05-14T02:50:56;64.02;58.30;67.92;;
73663;Laerm;61956;52.540;13.382;2023-05-14T02:53:26;64.01;58.22;68.50;;
73663;Laerm;61956;52.540;13.382;2023-05-14T02:55:55;63.97;57.93;68.26;;
73663;Laerm;61956;52.540;13.382;2023-05-14T02:58:24;64.00;58.13;68.00;;
73663;Laerm;61956;52.540;13.382;2023-05-14T03:00:56;64.09;58.13;67.93;;
73663;Laerm;61956;52.540;13.382;2023-05-14T03:03:25;64.05;58.28;68.09;;
73663;Laerm;61956;52.540;13.382;2023-05-14T03:05:54;63.97;58.09;67.94;;
73663;Laerm;61956;52.540;13.382;2023-05-14T03:08:23;64.03;57.86;68.11;;
73663;Laerm;61956;52.540;13.382;2023-05-14T03:10:53;64.00;58.31;67.51;;
73663;Laerm;61956;52.540;13.382;2023-05-14T03:13:22;64.04;58.13;67.94;;
73663;Laerm;61956;52.540;13.382;2023-05-14T03:15:51;64.01;58.21;67.88;;
73663;Laerm;61956;52.540;13.382;2023-05-14T03:18:24;64.00;58.13;68.01;;
73663;Laerm;61956;52.540;13.382;2023-05-14T03:20:55;64.10;58.45;70.66;;
73663;Laerm;61956;52.540;13.382;2023-05-14T03:23:25;64.18;57.82;71.02;;
73663;Laerm;61956;52.540;13.382;2023-05-14T03:25:54;64.00;58.16;70.80;;
73663;Laerm;61956;52.540;13.382;2023-05-14T03:28:24;64.09;58.13;72.46;;
73663;Laerm;61956;52.540;13.382;2023-05-14T03:30:53;64.01;57.98;68.02;;
73663;Laerm;61956;52.540;13.382;2023-05-14T03:33:25;63.98;58.30;67.71;;
73663;Laerm;61956;52.540;13.382;2023-05-14T03:35:54;63.96;58.20;68.24;;
73663;Laerm;61956;52.540;13.382;2023-05-14T03:38:23;63.97;58.44;70.97;;
73663;Laerm;61956;52.540;13.382;2023-05-14T03:40:53;63.88;58.44;67.69;;
73663;Laerm;61956;52.540;13.382;2023-05-14T03:43:22;63.94;58.25;68.34;;
73663;Laerm;61956;52.540;13.382;2023-05-14T03:45:51;63.87;58.44;67.80;;
73663;Laerm;61956;52.540;13.382;2023-05-14T03:48:20;63.86;58.01;67.84;;
73663;Laerm;61956;52.540;13.382;2023-05-14T03:50:53;63.95;58.14;69.97;;
73663;Laerm;61956;52.540;13.382;2023-05-14T03:53:22;63.91;58.47;67.89;;
73663;Laerm;61956;52.540;13.382;2023-05-14T03:55:51;63.89;58.02;68.08;;
73663;Laerm;61956;52.540;13.382;2023-05-14T03:58:20;63.83;58.17;68.04;;
73663;Laerm;61956;52.540;13.382;2023-05-14T04:00:49;63.83;58.03;67.97;;
73663;Laerm;61956;52.540;13.382;2023-05-14T04:03:19;63.79;58.65;67.49;;
73663;Laerm;61956;52.540;13.382;2023-05-14T04:05:53;63.76;58.70;67.68;;
73663;Laerm;61956;52.540;13.382;2023-05-14T04:08:22;63.67;58.37;67.91;;
73663;Laerm;61956;52.540;13.382;2023-05-14T04:10:51;63.73;58.28;68.09;;
73663;Laerm;61956;52.540;13.382;2023-05-14T04:13:22;63.71;57.95;67.74;;
73663;Laerm;61956;52.540;13.382;2023-05-14T04:15:51;63.66;58.47;67.46;;
73663;Laerm;61956;52.540;13.382;2023-05-14T04:18:20;63.80;58.30;67.98;;
73663;Laerm;61956;52.540;13.382;2023-05-14T04:20:50;63.68;58.08;67.54;;
73663;Laerm;61956;52.540;13.382;2023-05-14T04:23:21;63.62;58.31;67.95;;
73663;Laerm;61956;52.540;13.382;2023-05-14T04:25:50;63.63;57.99;67.80;;
73663;Laerm;61956;52.540;13.382;2023-05-14T04:28:20;63.63;58.22;67.48;;
73663;Laerm;61956;52.540;13.382;2023-05-14T04:30:49;63.66;58.53;67.64;;
73663;Laerm;61956;52.540;13.382;2023-05-14T04:33:18;63.51;58.00;67.45;;
73663;Laerm;61956;52.540;13.382;2023-05-14T04:35:47;63.57;58.51;67.97;;
73663;Laerm;61956;52.540;13.382;2023-05-14T04:38:17;63.57;58.31;67.35;;
73663;Laerm;61956;52.540;13.382;2023-05-14T04:40:49;63.65;58.38;67.81;;
73663;Laerm;61956;52.540;13.382;2023-05-14T04:43:18;63.58;58.23;67.56;;
73663;Laerm;61956;52.540;13.382;2023-05-14T04:45:47;63.61;58.37;67.47;;
73663;Laerm;61956;52.540;13.382;2023-05-14T04:48:17;63.68;58.36;67.44;;
73663;Laerm;61956;52.540;13.382;2023-05-14T04:50:46;63.79;58.34;72.84;;
73663;Laerm;61956;52.540;13.382;2023-05-14T04:53:15;63.64;58.17;67.73;;
73663;Laerm;61956;52.540;13.382;2023-05-14T04:55:45;63.53;58.07;67.42;;
73663;Laerm;61956;52.540;13.382;2023-05-14T04:58:16;63.63;58.21;67.80;;
73663;Laerm;61956;52.540;13.382;2023-05-14T05:00:45;63.63;58.17;67.64;;
73663;Laerm;61956;52.540;13.382;2023-05-14T05:03:15;63.63;58.36;67.75;;
73663;Laerm;61956;52.540;13.382;2023-05-14T05:05:44;63.54;58.13;67.54;;
73663;Laerm;61956;52.540;13.382;2023-05-14T05:08:13;63.64;58.27;67.35;;
73663;Laerm;61956;52.540;13.382;2023-05-14T05:10:42;63.56;58.51;67.84;;
73663;Laerm;61956;52.540;13.382;2023-05-14T05:13:11;63.66;58.17;67.53;;
73663;Laerm;61956;52.540;13.382;2023-05-14T05:15:44;63.60;58.09;67.48;;
73663;Laerm;61956;52.540;13.382;2023-05-14T05:18:14;63.56;58.24;67.94;;
73663;Laerm;61956;52.540;13.382;2023-05-14T05:20:43;63.55;58.32;68.00;;
73663;Laerm;61956;52.540;13.382;2023-05-14T05:23:12;63.53;58.15;68.13;;
73663;Laerm;61956;52.540;13.382;2023-05-14T05:25:41;63.54;57.88;67.45;;
73663;Laerm;61956;52.540;13.382;2023-05-14T05:28:10;63.55;58.29;67.70;;
73663;Laerm;61956;52.540;13.382;2023-05-14T05:30:39;63.46;58.08;67.35;;
73663;Laerm;61956;52.540;13.382;2023-05-14T05:33:12;63.39;58.41;67.37;;
73663;Laerm;61956;52.540;13.382;2023-05-14T05:35:41;63.35;57.96;67.47;;
73663;Laerm;61956;52.540;13.382;2023-05-14T05:38:11;63.26;58.32;67.38;;
73663;Laerm;61956;52.540;13.382;2023-05-14T05:40:40;63.18;58.19;68.24;;
73663;Laerm;61956;52.540;13.382;2023-05-14T05:43:09;63.13;58.28;67.70;;
73663;Laerm;61956;52.540;13.382;2023-05-14T05:45:38;63.07;58.01;67.31;;
73663;Laerm;61956;52.540;13.382;2023-05-14T05:48:08;63.06;58.03;67.37;;
73663;Laerm;61956;52.540;13.382;2023-05-14T05:50:40;63.02;58.23;67.95;;
73663;Laerm;61956;52.540;13.382;2023-05-14T05:53:09;63.04;58.41;70.48;;
73663;Laerm;61956;52.540;13.382;2023-05-14T05:55:39;63.03;58.58;66.88;;
73663;Laerm;61956;52.540;13.382;2023-05-14T05:58:08;63.00;58.23;70.20;;
73663;Laerm;61956;52.540;13.382;2023-05-14T06:00:40;62.96;57.86;70.79;;
73663;Laerm;61956;52.540;13.382;2023-05-14T06:03:10;62.89;58.44;66.91;;
73663;Laerm;61956;52.540;13.382;2023-05-14T06:05:42;62.82;57.94;67.44;;
73663;Laerm;61956;52.540;13.382;2023-05-14T06:08:11;62.80;58.18;67.10;;
73663;Laerm;61956;52.540;13.382;2023-05-14T06:13:09;61.62;57.61;65.51;;
73663;Laerm;61956;52.540;13.382;2023-05-14T06:15:39;61.24;57.37;65.59;;
73663;Laerm;61956;52.540;13.382;2023-05-14T06:18:08;61.26;57.51;65.69;;
73663;Laerm;61956;52.540;13.382;2023-05-14T06:23:09;63.67;58.60;66.67;;
73663;Laerm;61956;52.540;13.382;2023-05-14T06:25:38;63.95;58.83;75.07;;
73663;Laerm;61956;52.540;13.382;2023-05-14T06:28:07;63.71;59.04;67.03;;
73663;Laerm;61956;52.540;13.382;2023-05-14T06:30:37;63.72;58.86;66.65;;
73663;Laerm;61956;52.540;13.382;2023-05-14T06:33:06;63.76;58.68;66.66;;
73663;Laerm;61956;52.540;13.382;2023-05-14T06:35:38;63.79;58.80;66.82;;
73663;Laerm;61956;52.540;13.382;2023-05-14T06:38:09;63.82;58.69;66.84;;
73663;Laerm;61956;52.540;13.382;2023-05-14T06:40:39;63.90;58.76;66.69;;
73663;Laerm;61956;52.540;13.382;2023-05-14T06:43:08;63.97;59.06;69.34;;
73663;Laerm;61956;52.540;13.382;2023-05-14T06:45:37;63.94;59.71;67.35;;
73663;Laerm;61956;52.540;13.382;2023-05-14T06:48:06;63.83;59.39;66.50;;
73663;Laerm;61956;52.540;13.382;2023-05-14T06:50:35;63.70;58.46;67.35;;
73663;Laerm;61956;52.540;13.382;2023-05-14T06:53:04;64.05;59.29;66.99;;
73663;Laerm;61956;52.540;13.382;2023-05-14T06:55:36;64.05;59.20;66.84;;
73663;Laerm;61956;52.540;13.382;2023-05-14T06:58:06;64.11;58.64;66.90;;
73663;Laerm;61956;52.540;13.382;2023-05-14T07:00:36;64.18;58.73;66.87;;
73663;Laerm;61956;52.540;13.382;2023-05-14T07:03:05;64.18;59.21;67.15;;
73663;Laerm;61956;52.540;13.382;2023-05-14T07:05:34;64.15;58.77;66.94;;
73663;Laerm;61956;52.540;13.382;2023-05-14T07:08:05;64.26;59.10;67.23;;
73663;Laerm;61956;52.540;13.382;2023-05-14T07:10:37;64.24;59.21;67.21;;
73663;Laerm;61956;52.540;13.382;2023-05-14T07:13:07;64.19;59.07;67.15;;
73663;Laerm;61956;52.540;13.382;2023-05-14T07:15:36;64.22;59.41;67.22;;
73663;Laerm;61956;52.540;13.382;2023-05-14T07:18:05;64.11;59.17;67.14;;
73663;Laerm;61956;52.540;13.382;2023-05-14T07:20:34;63.74;58.38;66.61;;
73663;Laerm;61956;52.540;13.382;2023-05-14T07:23:04;63.67;59.44;66.36;;
73663;Laerm;61956;52.540;13.382;2023-05-14T07:25:33;64.19;60.23;66.49;;
73663;Laerm;61956;52.540;13.382;2023-05-14T07:28:05;64.07;60.02;66.81;;
73663;Laerm;61956;52.540;13.382;2023-05-14T07:30:35;64.15;60.01;66.73;;
73663;Laerm;61956;52.540;13.382;2023-05-14T07:33:04;64.00;60.12;66.84;;
73663;Laerm;61956;52.540;13.382;2023-05-14T07:35:33;63.82;59.48;67.10;;
73663;Laerm;61956;52.540;13.382;2023-05-14T07:38:03;63.89;59.93;66.74;;
73663;Laerm;61956;52.540;13.382;2023-05-14T07:40:32;63.56;59.39;67.25;;
73663;Laerm;61956;52.540;13.382;2023-05-14T07:43:01;63.92;59.80;70.11;;
73663;Laerm;61956;52.540;13.382;2023-05-14T07:45:33;64.15;58.83;71.17;;
73663;Laerm;61956;52.540;13.382;2023-05-14T07:48:04;64.22;59.11;66.85;;
73663;Laerm;61956;52.540;13.382;2023-05-14T07:50:33;63.85;58.88;67.68;;
73663;Laerm;61956;52.540;13.382;2023-05-14T07:53:03;64.00;59.90;66.43;;
73663;Laerm;61956;52.540;13.382;2023-05-14T07:55:32;64.09;59.71;66.77;;
73663;Laerm;61956;52.540;13.382;2023-05-14T07:58:02;64.23;60.13;67.36;;
73663;Laerm;61956;52.540;13.382;2023-05-14T08:00:34;64.11;58.99;66.78;;
73663;Laerm;61956;52.540;13.382;2023-05-14T08:03:03;64.21;59.38;66.87;;
73663;Laerm;61956;52.540;13.382;2023-05-14T08:05:32;63.89;59.38;71.18;;
73663;Laerm;61956;52.540;13.382;2023-05-14T08:08:02;64.13;58.95;67.51;;
73663;Laerm;61956;52.540;13.382;2023-05-14T08:10:31;64.09;59.36;70.43;;
73663;Laerm;61956;52.540;13.382;2023-05-14T08:13:00;64.31;58.44;70.38;;
73663;Laerm;61956;52.540;13.382;2023-05-14T08:15:32;64.13;59.81;66.51;;
73663;Laerm;61956;52.540;13.382;2023-05-14T08:18:02;64.27;60.39;66.62;;
73663;Laerm;61956;52.540;13.382;2023-05-14T08:20:32;64.22;60.01;66.50;;
73663;Laerm;61956;52.540;13.382;2023-05-14T08:23:01;64.22;59.96;66.75;;
73663;Laerm;61956;52.540;13.382;2023-05-14T08:25:32;64.20;60.51;66.70;;
73663;Laerm;61956;52.540;13.382;2023-05-14T08:28:01;64.20;59.58;67.10;;
73663;Laerm;61956;52.540;13.382;2023-05-14T08:30:33;64.17;60.18;67.81;;
73663;Laerm;61956;52.540;13.382;2023-05-14T08:33:02;64.15;60.18;66.62;;
73663;Laerm;61956;52.540;13.382;2023-05-14T08:35:32;64.17;59.73;66.30;;
73663;Laerm;61956;52.540;13.382;2023-05-14T08:38:01;64.29;59.21;72.22;;
73663;Laerm;61956;52.540;13.382;2023-05-14T08:40:30;64.11;59.23;66.64;;
73663;Laerm;61956;52.540;13.382;2023-05-14T08:43:01;64.03;59.35;66.80;;
73663;Laerm;61956;52.540;13.382;2023-05-14T08:45:34;64.04;59.52;66.70;;
73663;Laerm;61956;52.540;13.382;2023-05-14T08:48:06;63.95;58.34;68.68;;
73663;Laerm;61956;52.540;13.382;2023-05-14T08:50:38;64.04;60.17;69.92;;
73663;Laerm;61956;52.540;13.382;2023-05-14T08:53:08;64.04;60.05;66.78;;
73663;Laerm;61956;52.540;13.382;2023-05-14T08:55:38;63.84;60.02;66.49;;
73663;Laerm;61956;52.540;13.382;2023-05-14T08:58:07;63.83;60.00;66.22;;
73663;Laerm;61956;52.540;13.382;2023-05-14T09:00:39;63.83;58.55;66.89;;
73663;Laerm;61956;52.540;13.382;2023-05-14T09:03:09;63.82;60.11;66.07;;
73663;Laerm;61956;52.540;13.382;2023-05-14T09:05:40;63.91;59.72;66.37;;
73663;Laerm;61956;52.540;13.382;2023-05-14T09:08:09;63.90;60.15;66.45;;
73663;Laerm;61956;52.540;13.382;2023-05-14T09:10:38;63.88;59.75;66.54;;
73663;Laerm;61956;52.540;13.382;2023-05-14T09:13:08;63.89;59.87;66.21;;
73663;Laerm;61956;52.540;13.382;2023-05-14T09:15:39;63.77;58.86;66.15;;
73663;Laerm;61956;52.540;13.382;2023-05-14T09:18:09;63.72;58.88;66.19;;
73663;Laerm;61956;52.540;13.382;2023-05-14T09:20:39;63.75;59.49;66.59;;
73663;Laerm;61956;52.540;13.382;2023-05-14T09:23:08;63.69;59.27;66.51;;
73663;Laerm;61956;52.540;13.382;2023-05-14T09:25:37;63.86;59.79;66.59;;
73663;Laerm;61956;52.540;13.382;2023-05-14T09:28:08;63.78;60.01;66.55;;
73663;Laerm;61956;52.540;13.382;2023-05-14T09:30:40;63.64;58.95;66.95;;
73663;Laerm;61956;52.540;13.382;2023-05-14T09:33:09;63.77;59.19;68.30;;
73663;Laerm;61956;52.540;13.382;2023-05-14T09:35:38;63.76;59.71;68.84;;
73663;Laerm;61956;52.540;13.382;2023-05-14T09:38:08;63.88;60.57;66.58;;
73663;Laerm;61956;52.540;13.382;2023-05-14T09:40:38;63.73;58.38;69.04;;
73663;Laerm;61956;52.540;13.382;2023-05-14T09:43:08;63.71;59.65;66.34;;
73663;Laerm;61956;52.540;13.382;2023-05-14T09:45:40;63.72;58.85;66.28;;
73663;Laerm;61956;52.540;13.382;2023-05-14T09:48:10;63.68;58.71;66.44;;
73663;Laerm;61956;52.540;13.382;2023-05-14T09:50:41;63.86;59.69;66.25;;
73663;Laerm;61956;52.540;13.382;2023-05-14T09:53:12;63.79;58.39;66.77;;
73663;Laerm;61956;52.540;13.382;2023-05-14T09:55:43;63.61;58.49;66.68;;
73663;Laerm;61956;52.540;13.382;2023-05-14T09:58:12;63.69;58.64;66.14;;
73663;Laerm;61956;52.540;13.382;2023-05-14T10:00:45;63.72;58.93;66.45;;
73663;Laerm;61956;52.540;13.382;2023-05-14T10:03:16;63.80;59.96;66.45;;
73663;Laerm;61956;52.540;13.382;2023-05-14T10:05:48;63.76;58.98;66.43;;
73663;Laerm;61956;52.540;13.382;2023-05-14T10:08:23;63.81;59.25;67.42;;
73663;Laerm;61956;52.540;13.382;2023-05-14T10:10:57;63.78;58.63;66.99;;
73663;Laerm;61956;52.540;13.382;2023-05-14T10:13:32;63.44;58.68;66.39;;
73663;Laerm;61956;52.540;13.382;2023-05-14T10:16:15;63.56;58.43;66.86;;
73663;Laerm;61956;52.540;13.382;2023-05-14T10:18:55;63.96;58.40;70.54;;
73663;Laerm;61956;52.540;13.382;2023-05-14T10:21:29;63.69;59.20;66.27;;
73663;Laerm;61956;52.540;13.382;2023-05-14T10:24:01;63.87;60.57;66.87;;
73663;Laerm;61956;52.540;13.382;2023-05-14T10:26:31;63.68;58.86;66.48;;
73663;Laerm;61956;52.540;13.382;2023-05-14T10:29:02;63.85;58.95;66.74;;
73663;Laerm;61956;52.540;13.382;2023-05-14T10:31:50;63.94;57.94;66.40;;
73663;Laerm;61956;52.540;13.382;2023-05-14T10:34:33;63.98;59.28;66.59;;
73663;Laerm;61956;52.540;13.382;2023-05-14T10:37:08;63.75;60.01;66.36;;
73663;Laerm;61956;52.540;13.382;2023-05-14T10:39:49;63.15;59.57;69.03;;
73663;Laerm;61956;52.540;13.382;2023-05-14T10:42:21;63.78;59.00;66.29;;
73663;Laerm;61956;52.540;13.382;2023-05-14T10:44:53;63.78;59.70;66.40;;
73663;Laerm;61956;52.540;13.382;2023-05-14T10:47:27;63.81;60.42;66.25;;
73663;Laerm;61956;52.540;13.382;2023-05-14T10:49:58;63.83;58.67;66.67;;
73663;Laerm;61956;52.540;13.382;2023-05-14T10:52:29;63.90;60.00;66.41;;
73663;Laerm;61956;52.540;13.382;2023-05-14T10:55:01;63.90;58.49;71.14;;
73663;Laerm;61956;52.540;13.382;2023-05-14T10:57:37;63.83;59.44;66.33;;
73663;Laerm;61956;52.540;13.382;2023-05-14T11:00:09;63.83;59.81;66.31;;
73663;Laerm;61956;52.540;13.382;2023-05-14T11:02:44;63.86;59.48;66.52;;
73663;Laerm;61956;52.540;13.382;2023-05-14T11:05:15;63.87;58.21;66.87;;
73663;Laerm;61956;52.540;13.382;2023-05-14T11:07:47;63.68;59.61;66.23;;
73663;Laerm;61956;52.540;13.382;2023-05-14T11:10:18;64.04;59.64;66.50;;
73663;Laerm;61956;52.540;13.382;2023-05-14T11:12:50;63.95;58.32;66.79;;
73663;Laerm;61956;52.540;13.382;2023-05-14T11:15:21;64.13;59.28;66.44;;
73663;Laerm;61956;52.540;13.382;2023-05-14T11:17:54;63.98;58.78;66.36;;
73663;Laerm;61956;52.540;13.382;2023-05-14T11:20:23;64.74;58.70;75.54;;
73663;Laerm;61956;52.540;13.382;2023-05-14T11:22:52;64.09;59.43;67.71;;
73663;Laerm;61956;52.540;13.382;2023-05-14T11:25:22;64.19;60.37;66.94;;
73663;Laerm;61956;52.540;13.382;2023-05-14T11:27:51;64.06;60.18;66.50;;
73663;Laerm;61956;52.540;13.382;2023-05-14T11:30:23;64.16;60.72;66.69;;
73663;Laerm;61956;52.540;13.382;2023-05-14T11:32:57;63.99;58.85;66.57;;
73663;Laerm;61956;52.540;13.382;2023-05-14T11:35:26;63.99;59.14;66.49;;
73663;Laerm;61956;52.540;13.382;2023-05-14T11:37:55;64.16;59.61;66.59;;
73663;Laerm;61956;52.540;13.382;2023-05-14T11:40:25;64.01;59.15;66.77;;
73663;Laerm;61956;52.540;13.382;2023-05-14T11:42:54;64.11;59.83;66.53;;
73663;Laerm;61956;52.540;13.382;2023-05-14T11:45:24;63.98;60.04;66.55;;
73663;Laerm;61956;52.540;13.382;2023-05-14T11:47:57;63.93;58.94;66.62;;
73663;Laerm;61956;52.540;13.382;2023-05-14T11:50:26;63.99;59.54;66.56;;
73663;Laerm;61956;52.540;13.382;2023-05-14T11:52:56;64.14;60.50;66.70;;
73663;Laerm;61956;52.540;13.382;2023-05-14T11:55:25;63.98;60.18;66.46;;
73663;Laerm;61956;52.540;13.382;2023-05-14T11:57:55;64.12;60.12;66.91;;
73663;Laerm;61956;52.540;13.382;2023-05-14T12:00:25;63.85;59.31;66.65;;
73663;Laerm;61956;52.540;13.382;2023-05-14T12:02:59;64.00;60.37;66.82;;
73663;Laerm;61956;52.540;13.382;2023-05-14T12:05:28;64.01;60.01;66.33;;
73663;Laerm;61956;52.540;13.382;2023-05-14T12:07:57;64.07;59.97;66.75;;
73663;Laerm;61956;52.540;13.382;2023-05-14T12:10:26;64.01;58.79;66.69;;
73663;Laerm;61956;52.540;13.382;2023-05-14T12:12:55;63.98;59.77;66.59;;
73663;Laerm;61956;52.540;13.382;2023-05-14T12:15:25;63.90;58.63;69.33;;
73663;Laerm;61956;52.540;13.382;2023-05-14T12:17:54;64.07;59.79;66.67;;
73663;Laerm;61956;52.540;13.382;2023-05-14T12:20:28;64.11;60.53;66.85;;
73663;Laerm;61956;52.540;13.382;2023-05-14T12:22:57;63.99;59.87;66.40;;
73663;Laerm;61956;52.540;13.382;2023-05-14T12:25:28;63.96;59.63;67.54;;
73663;Laerm;61956;52.540;13.382;2023-05-14T12:27:57;63.88;59.98;66.46;;
73663;Laerm;61956;52.540;13.382;2023-05-14T12:30:27;63.92;59.64;66.37;;
73663;Laerm;61956;52.540;13.382;2023-05-14T12:33:04;63.98;59.95;66.17;;
73663;Laerm;61956;52.540;13.382;2023-05-14T12:35:36;63.95;60.35;66.82;;
73663;Laerm;61956;52.540;13.382;2023-05-14T12:38:06;63.72;58.77;66.28;;
73663;Laerm;61956;52.540;13.382;2023-05-14T12:40:35;63.89;60.21;66.89;;
73663;Laerm;61956;52.540;13.382;2023-05-14T12:43:04;63.85;59.76;66.67;;
73663;Laerm;61956;52.540;13.382;2023-05-14T12:45:34;63.91;59.93;66.25;;
73663;Laerm;61956;52.540;13.382;2023-05-14T12:48:03;63.85;60.23;66.18;;
73663;Laerm;61956;52.540;13.382;2023-05-14T12:50:32;63.74;59.46;66.39;;
73663;Laerm;61956;52.540;13.382;2023-05-14T12:53:04;63.74;58.98;66.16;;
73663;Laerm;61956;52.540;13.382;2023-05-14T12:55:34;63.63;58.51;66.37;;
73663;Laerm;61956;52.540;13.382;2023-05-14T12:58:04;63.90;58.57;66.41;;
73663;Laerm;61956;52.540;13.382;2023-05-14T13:00:33;63.89;59.15;66.71;;
73663;Laerm;61956;52.540;13.382;2023-05-14T13:03:02;63.93;60.30;66.78;;
73663;Laerm;61956;52.540;13.382;2023-05-14T13:05:31;63.90;59.85;72.26;;
73663;Laerm;61956;52.540;13.382;2023-05-14T13:08:04;63.96;60.14;66.68;;
73663;Laerm;61956;52.540;13.382;2023-05-14T13:10:33;63.88;60.10;66.84;;
73663;Laerm;61956;52.540;13.382;2023-05-14T13:13:02;63.89;60.36;66.44;;
73663;Laerm;61956;52.540;13.382;2023-05-14T13:15:31;63.84;59.17;66.82;;
73663;Laerm;61956;52.540;13.382;2023-05-14T13:18:01;63.88;59.51;66.35;;
73663;Laerm;61956;52.540;13.382;2023-05-14T13:20:30;63.96;59.60;66.46;;
73663;Laerm;61956;52.540;13.382;2023-05-14T13:22:59;63.84;59.05;66.38;;
73663;Laerm;61956;52.540;13.382;2023-05-14T13:25:31;63.89;59.49;66.51;;
73663;Laerm;61956;52.540;13.382;2023-05-14T13:28:00;63.73;60.48;66.76;;
73663;Laerm;61956;52.540;13.382;2023-05-14T13:30:30;63.92;60.00;66.53;;
73663;Laerm;61956;52.540;13.382;2023-05-14T13:32:59;63.91;60.31;66.80;;
73663;Laerm;61956;52.540;13.382;2023-05-14T13:35:28;63.93;59.61;77.52;;
73663;Laerm;61956;52.540;13.382;2023-05-14T13:37:58;63.92;59.64;68.66;;
73663;Laerm;61956;52.540;13.382;2023-05-14T13:40:29;63.86;59.86;68.43;;
73663;Laerm;61956;52.540;13.382;2023-05-14T13:42:59;64.01;59.47;67.21;;
73663;Laerm;61956;52.540;13.382;2023-05-14T13:45:30;63.93;58.96;68.30;;
73663;Laerm;61956;52.540;13.382;2023-05-14T13:47:59;64.00;59.37;66.56;;
73663;Laerm;61956;52.540;13.382;2023-05-14T13:50:29;63.83;59.69;67.03;;
73663;Laerm;61956;52.540;13.382;2023-05-14T13:52:58;63.87;59.15;66.99;;
73663;Laerm;61956;52.540;13.382;2023-05-14T13:55:30;63.94;59.79;66.42;;
73663;Laerm;61956;52.540;13.382;2023-05-14T13:58:00;63.82;60.38;68.47;;
73663;Laerm;61956;52.540;13.382;2023-05-14T14:00:30;63.85;60.24;66.31;;
73663;Laerm;61956;52.540;13.382;2023-05-14T14:02:59;63.85;59.97;66.28;;
73663;Laerm;61956;52.540;13.382;2023-05-14T14:05:28;63.90;59.64;66.43;;
73663;Laerm;61956;52.540;13.382;2023-05-14T14:07:57;63.77;60.05;66.20;;
73663;Laerm;61956;52.540;13.382;2023-05-14T14:10:30;63.86;60.17;66.64;;
73663;Laerm;61956;52.540;13.382;2023-05-14T14:12:59;63.90;59.54;66.18;;
73663;Laerm;61956;52.540;13.382;2023-05-14T14:15:29;63.84;59.48;66.45;;
73663;Laerm;61956;52.540;13.382;2023-05-14T14:17:58;63.85;60.43;66.85;;
73663;Laerm;61956;52.540;13.382;2023-05-14T14:20:27;63.90;60.09;66.28;;
73663;Laerm;61956;52.540;13.382;2023-05-14T14:22:57;63.92;59.73;66.48;;
73663;Laerm;61956;52.540;13.382;2023-05-14T14:25:26;63.85;59.85;66.48;;
73663;Laerm;61956;52.540;13.382;2023-05-14T14:27:58;63.85;59.54;66.36;;
73663;Laerm;61956;52.540;13.382;2023-05-14T14:30:27;63.88;60.05;66.50;;
73663;Laerm;61956;52.540;13.382;2023-05-14T14:32:56;63.88;58.75;66.77;;
73663;Laerm;61956;52.540;13.382;2023-05-14T14:35:26;63.82;59.73;66.17;;
73663;Laerm;61956;52.540;13.382;2023-05-14T14:37:55;63.91;59.81;69.41;;
73663;Laerm;61956;52.540;13.382;2023-05-14T14:40:25;63.79;58.73;66.48;;
73663;Laerm;61956;52.540;13.382;2023-05-14T14:42:57;63.88;60.46;66.29;;
73663;Laerm;61956;52.540;13.382;2023-05-14T14:45:27;63.86;59.79;66.25;;
73663;Laerm;61956;52.540;13.382;2023-05-14T14:48:24;63.54;59.93;66.56;;
73663;Laerm;61956;52.540;13.382;2023-05-14T14:50:57;63.65;58.72;66.47;;
73663;Laerm;61956;52.540;13.382;2023-05-14T14:53:27;63.65;59.29;66.63;;
73663;Laerm;61956;52.540;13.382;2023-05-14T14:56:03;63.81;60.05;66.31;;
73663;Laerm;61956;52.540;13.382;2023-05-14T14:58:35;63.92;60.14;66.57;;
73663;Laerm;61956;52.540;13.382;2023-05-14T15:01:04;63.79;59.27;66.55;;
73663;Laerm;61956;52.540;13.382;2023-05-14T15:03:33;63.82;60.30;66.55;;
73663;Laerm;61956;52.540;13.382;2023-05-14T15:06:03;63.89;59.39;66.46;;
73663;Laerm;61956;52.540;13.382;2023-05-14T15:08:33;64.09;60.56;66.40;;
73663;Laerm;61956;52.540;13.382;2023-05-14T15:11:02;64.00;58.26;66.40;;
73663;Laerm;61956;52.540;13.382;2023-05-14T15:16:03;63.60;59.64;65.93;;
73663;Laerm;61956;52.540;13.382;2023-05-14T15:18:32;63.67;59.54;65.88;;
73663;Laerm;61956;52.540;13.382;2023-05-14T15:21:02;63.83;60.38;67.63;;
73663;Laerm;61956;52.540;13.382;2023-05-14T15:23:31;63.93;58.59;66.44;;
73663;Laerm;61956;52.540;13.382;2023-05-14T15:26:00;63.96;58.93;70.03;;
73663;Laerm;61956;52.540;13.382;2023-05-14T15:28:29;64.05;59.08;72.43;;
73663;Laerm;61956;52.540;13.382;2023-05-14T15:31:02;64.10;59.35;73.59;;
73663;Laerm;61956;52.540;13.382;2023-05-14T15:33:31;64.01;59.48;69.26;;
73663;Laerm;61956;52.540;13.382;2023-05-14T15:36:00;64.13;58.80;75.24;;